sensor_id;sensor_type;location;lat;lon;timestamp;pressure;altitude;pressure_sealevel;temperature;humidity
73297;BME280;61524;50.938;11.396;2022-08-24T00:00:24;99928.34;;;11.57;89.51
73297;BME280;61524;50.938;11.396;2022-08-24T00:02:50;99879.69;;;11.48;89.49
73297;BME280;61524;50.938;11.396;2022-08-24T00:05:17;99865.75;;;11.46;89.46
73297;BME280;61524;50.938;11.396;2022-08-24T00:07:45;99863.97;;;11.40;89.63
73297;BME280;61524;50.938;11.396;2022-08-24T00:10:12;99855.94;;;11.40;89.61
73297;BME280;61524;50.938;11.396;2022-08-24T00:12:38;99861.78;;;11.49;89.32
73297;BME280;61524;50.938;11.396;2022-08-24T00:15:06;99855.97;;;11.52;89.39
73297;BME280;61524;50.938;11.396;2022-08-24T00:17:32;99861.31;;;11.52;89.43
73297;BME280;61524;50.938;11.396;2022-08-24T00:19:58;99848.41;;;11.49;88.93
73297;BME280;61524;50.938;11.396;2022-08-24T00:22:24;99845.84;;;11.42;88.89
73297;BME280;61524;50.938;11.396;2022-08-24T00:24:50;99846.16;;;11.34;89.63
73297;BME280;61524;50.938;11.396;2022-08-24T00:27:15;99846.78;;;11.36;90.04
73297;BME280;61524;50.938;11.396;2022-08-24T00:29:41;99848.50;;;11.30;89.54
73297;BME280;61524;50.938;11.396;2022-08-24T00:32:06;99843.47;;;11.22;90.30
73297;BME280;61524;50.938;11.396;2022-08-24T00:34:32;99849.53;;;11.18;90.63
73297;BME280;61524;50.938;11.396;2022-08-24T00:36:58;99854.19;;;11.22;90.16
73297;BME280;61524;50.938;11.396;2022-08-24T00:39:23;99854.97;;;11.11;90.36
73297;BME280;61524;50.938;11.396;2022-08-24T00:41:50;99850.78;;;11.03;90.90
73297;BME280;61524;50.938;11.396;2022-08-24T00:44:17;99846.81;;;11.06;90.68
73297;BME280;61524;50.938;11.396;2022-08-24T00:46:45;99860.88;;;11.01;90.96
73297;BME280;61524;50.938;11.396;2022-08-24T00:52:00;99901.09;;;10.95;91.33
73297;BME280;61524;50.938;11.396;2022-08-24T00:54:30;99870.25;;;10.92;91.42
73297;BME280;61524;50.938;11.396;2022-08-24T00:57:00;99863.53;;;10.90;91.16
73297;BME280;61524;50.938;11.396;2022-08-24T00:59:30;99864.59;;;11.00;91.69
73297;BME280;61524;50.938;11.396;2022-08-24T01:01:57;99860.19;;;10.94;91.38
73297;BME280;61524;50.938;11.396;2022-08-24T01:04:34;99850.25;;;10.83;90.79
73297;BME280;61524;50.938;11.396;2022-08-24T01:07:03;99844.28;;;10.69;91.28
73297;BME280;61524;50.938;11.396;2022-08-24T01:09:28;99853.13;;;10.70;90.42
73297;BME280;61524;50.938;11.396;2022-08-24T01:11:54;99850.91;;;10.67;91.21
73297;BME280;61524;50.938;11.396;2022-08-24T01:14:22;99849.50;;;10.64;91.43
73297;BME280;61524;50.938;11.396;2022-08-24T01:16:49;99855.06;;;10.63;92.07
73297;BME280;61524;50.938;11.396;2022-08-24T01:19:38;99888.84;;;10.57;92.12
73297;BME280;61524;50.938;11.396;2022-08-24T01:22:15;99877.84;;;10.65;92.07
73297;BME280;61524;50.938;11.396;2022-08-24T01:24:43;99864.94;;;10.62;92.24
73297;BME280;61524;50.938;11.396;2022-08-24T01:27:10;99864.47;;;10.65;91.96
73297;BME280;61524;50.938;11.396;2022-08-24T01:29:37;99861.22;;;10.63;92.00
73297;BME280;61524;50.938;11.396;2022-08-24T01:32:04;99860.56;;;10.68;91.41
73297;BME280;61524;50.938;11.396;2022-08-24T01:34:30;99868.47;;;10.74;91.59
73297;BME280;61524;50.938;11.396;2022-08-24T01:36:56;99857.66;;;10.69;91.82
73297;BME280;61524;50.938;11.396;2022-08-24T01:41:51;99835.22;;;10.22;88.33
73297;BME280;61524;50.938;11.396;2022-08-24T01:44:18;99874.31;;;10.16;89.77
73297;BME280;61524;50.938;11.396;2022-08-24T01:46:48;99848.41;;;10.23;90.74
73297;BME280;61524;50.938;11.396;2022-08-24T01:49:15;99858.41;;;10.28;90.76
73297;BME280;61524;50.938;11.396;2022-08-24T01:51:41;99850.53;;;10.33;90.21
73297;BME280;61524;50.938;11.396;2022-08-24T01:54:08;99849.13;;;10.31;91.19
73297;BME280;61524;50.938;11.396;2022-08-24T01:56:34;99846.97;;;10.39;92.63
73297;BME280;61524;50.938;11.396;2022-08-24T01:59:01;99843.19;;;10.29;92.66
73297;BME280;61524;50.938;11.396;2022-08-24T02:01:29;99833.53;;;10.28;92.77
73297;BME280;61524;50.938;11.396;2022-08-24T02:03:57;99829.69;;;10.23;92.25
73297;BME280;61524;50.938;11.396;2022-08-24T02:06:24;99819.03;;;10.17;92.51
73297;BME280;61524;50.938;11.396;2022-08-24T02:08:50;99829.97;;;10.15;93.32
73297;BME280;61524;50.938;11.396;2022-08-24T02:11:16;99839.41;;;10.18;92.66
73297;BME280;61524;50.938;11.396;2022-08-24T02:13:42;99842.41;;;10.21;93.13
73297;BME280;61524;50.938;11.396;2022-08-24T02:16:07;99838.44;;;10.31;93.46
73297;BME280;61524;50.938;11.396;2022-08-24T02:18:35;99878.41;;;10.37;92.54
73297;BME280;61524;50.938;11.396;2022-08-24T02:21:00;99905.28;;;10.42;92.73
73297;BME280;61524;50.938;11.396;2022-08-24T02:23:27;99953.34;;;10.42;92.42
73297;BME280;61524;50.938;11.396;2022-08-24T02:25:54;99980.22;;;10.29;89.89
73297;BME280;61524;50.938;11.396;2022-08-24T02:28:19;99953.13;;;10.25;89.60
73297;BME280;61524;50.938;11.396;2022-08-24T02:30:45;99946.22;;;10.18;90.68
73297;BME280;61524;50.938;11.396;2022-08-24T02:33:11;99929.00;;;10.14;91.75
73297;BME280;61524;50.938;11.396;2022-08-24T02:35:37;99930.22;;;10.11;92.65
73297;BME280;61524;50.938;11.396;2022-08-24T02:38:03;99928.53;;;10.17;93.94
73297;BME280;61524;50.938;11.396;2022-08-24T02:40:29;99925.75;;;10.12;93.70
73297;BME280;61524;50.938;11.396;2022-08-24T02:42:54;99930.63;;;10.15;92.89
73297;BME280;61524;50.938;11.396;2022-08-24T02:45:20;99931.91;;;10.12;93.44
73297;BME280;61524;50.938;11.396;2022-08-24T02:47:46;99925.50;;;10.13;93.36
73297;BME280;61524;50.938;11.396;2022-08-24T02:50:13;99980.31;;;10.16;93.33
73297;BME280;61524;50.938;11.396;2022-08-24T02:52:40;99942.50;;;10.19;93.02
73297;BME280;61524;50.938;11.396;2022-08-24T02:55:10;99937.59;;;10.16;93.10
73297;BME280;61524;50.938;11.396;2022-08-24T02:57:36;99944.19;;;10.13;93.18
73297;BME280;61524;50.938;11.396;2022-08-24T03:00:04;99942.56;;;10.12;92.73
73297;BME280;61524;50.938;11.396;2022-08-24T03:02:30;99944.13;;;10.20;93.31
73297;BME280;61524;50.938;11.396;2022-08-24T03:04:55;99933.88;;;10.17;93.54
73297;BME280;61524;50.938;11.396;2022-08-24T03:07:21;99929.38;;;10.17;93.18
73297;BME280;61524;50.938;11.396;2022-08-24T03:09:46;99934.41;;;10.07;93.55
73297;BME280;61524;50.938;11.396;2022-08-24T03:12:12;99936.38;;;9.93;91.33
73297;BME280;61524;50.938;11.396;2022-08-24T03:14:38;99918.81;;;9.86;92.56
73297;BME280;61524;50.938;11.396;2022-08-24T03:17:03;99924.34;;;9.84;93.12
73297;BME280;61524;50.938;11.396;2022-08-24T03:19:29;99920.03;;;9.83;93.12
73297;BME280;61524;50.938;11.396;2022-08-24T03:21:55;99928.66;;;9.85;93.79
73297;BME280;61524;50.938;11.396;2022-08-24T03:24:21;99927.97;;;9.90;93.20
73297;BME280;61524;50.938;11.396;2022-08-24T03:26:47;99923.69;;;9.89;93.52
73297;BME280;61524;50.938;11.396;2022-08-24T03:29:14;99957.22;;;9.85;93.94
73297;BME280;61524;50.938;11.396;2022-08-24T03:31:40;99960.25;;;9.88;94.25
73297;BME280;61524;50.938;11.396;2022-08-24T03:34:05;100007.88;;;9.91;93.91
73297;BME280;61524;50.938;11.396;2022-08-24T03:36:30;100033.13;;;9.89;93.64
73297;BME280;61524;50.938;11.396;2022-08-24T03:38:56;100020.66;;;9.83;93.26
73297;BME280;61524;50.938;11.396;2022-08-24T03:41:22;100063.13;;;9.84;94.48
73297;BME280;61524;50.938;11.396;2022-08-24T03:43:47;100072.63;;;9.80;94.71
73297;BME280;61524;50.938;11.396;2022-08-24T03:46:21;100101.94;;;9.87;94.15
73297;BME280;61524;50.938;11.396;2022-08-24T03:48:48;100110.00;;;9.80;94.09
73297;BME280;61524;50.938;11.396;2022-08-24T03:51:18;100137.91;;;9.78;93.21
73297;BME280;61524;50.938;11.396;2022-08-24T03:53:45;100224.75;;;9.73;94.17
73297;BME280;61524;50.938;11.396;2022-08-24T03:56:10;100124.56;;;9.78;93.83
73297;BME280;61524;50.938;11.396;2022-08-24T03:58:37;100105.50;;;9.74;94.18
73297;BME280;61524;50.938;11.396;2022-08-24T04:01:03;100087.44;;;9.76;93.96
73297;BME280;61524;50.938;11.396;2022-08-24T04:03:34;100083.38;;;9.67;93.30
73297;BME280;61524;50.938;11.396;2022-08-24T04:06:00;100074.41;;;9.55;94.14
73297;BME280;61524;50.938;11.396;2022-08-24T04:08:25;100085.91;;;9.55;94.23
73297;BME280;61524;50.938;11.396;2022-08-24T04:10:51;100081.59;;;9.54;94.23
73297;BME280;61524;50.938;11.396;2022-08-24T04:13:18;100072.34;;;9.57;95.06
73297;BME280;61524;50.938;11.396;2022-08-24T04:15:44;100100.63;;;9.64;95.13
73297;BME280;61524;50.938;11.396;2022-08-24T04:18:10;100084.00;;;9.62;94.60
73297;BME280;61524;50.938;11.396;2022-08-24T04:20:41;100080.53;;;9.62;94.64
73297;BME280;61524;50.938;11.396;2022-08-24T04:23:08;100069.81;;;9.68;94.74
73297;BME280;61524;50.938;11.396;2022-08-24T04:25:39;100069.00;;;9.68;94.13
73297;BME280;61524;50.938;11.396;2022-08-24T04:28:04;100152.69;;;9.73;93.58
73297;BME280;61524;50.938;11.396;2022-08-24T04:30:30;100171.56;;;9.79;93.80
73297;BME280;61524;50.938;11.396;2022-08-24T04:32:56;100196.63;;;9.78;94.39
73297;BME280;61524;50.938;11.396;2022-08-24T04:35:22;100232.13;;;9.85;93.81
73297;BME280;61524;50.938;11.396;2022-08-24T04:37:47;100209.56;;;9.81;93.66
73297;BME280;61524;50.938;11.396;2022-08-24T04:40:13;100214.72;;;9.76;92.89
73297;BME280;61524;50.938;11.396;2022-08-24T04:42:38;100261.50;;;9.78;93.99
73297;BME280;61524;50.938;11.396;2022-08-24T04:45:04;100276.88;;;9.83;94.52
73297;BME280;61524;50.938;11.396;2022-08-24T04:47:29;100305.84;;;9.86;93.51
73297;BME280;61524;50.938;11.396;2022-08-24T04:49:55;100303.16;;;9.86;93.04
73297;BME280;61524;50.938;11.396;2022-08-24T04:52:20;100327.38;;;9.84;93.37
73297;BME280;61524;50.938;11.396;2022-08-24T04:54:46;100313.00;;;9.79;93.89
73297;BME280;61524;50.938;11.396;2022-08-24T04:57:12;100331.50;;;9.87;93.01
73297;BME280;61524;50.938;11.396;2022-08-24T04:59:38;100369.91;;;9.86;94.13
73297;BME280;61524;50.938;11.396;2022-08-24T05:02:03;100377.66;;;9.94;93.71
73297;BME280;61524;50.938;11.396;2022-08-24T05:04:29;100358.56;;;9.97;94.07
73297;BME280;61524;50.938;11.396;2022-08-24T05:06:54;100401.25;;;10.04;94.64
73297;BME280;61524;50.938;11.396;2022-08-24T05:09:20;100527.38;;;10.25;93.28
73297;BME280;61524;50.938;11.396;2022-08-24T05:11:46;100505.34;;;10.43;93.34
73297;BME280;61524;50.938;11.396;2022-08-24T05:14:11;100514.34;;;10.69;93.00
73297;BME280;61524;50.938;11.396;2022-08-24T05:16:37;100528.47;;;10.89;92.59
73297;BME280;61524;50.938;11.396;2022-08-24T05:19:04;100433.94;;;11.09;92.31
73297;BME280;61524;50.938;11.396;2022-08-24T05:21:31;100437.47;;;11.34;91.95
73297;BME280;61524;50.938;11.396;2022-08-24T05:23:56;100436.28;;;11.55;91.38
73297;BME280;61524;50.938;11.396;2022-08-24T05:26:25;100418.41;;;11.74;90.50
73297;BME280;61524;50.938;11.396;2022-08-24T05:28:55;100426.34;;;11.87;89.85
73297;BME280;61524;50.938;11.396;2022-08-24T05:31:24;100427.22;;;12.06;89.43
73297;BME280;61524;50.938;11.396;2022-08-24T05:33:50;100431.31;;;12.27;88.33
73297;BME280;61524;50.938;11.396;2022-08-24T05:36:24;100441.69;;;12.53;87.91
73297;BME280;61524;50.938;11.396;2022-08-24T05:38:53;100439.25;;;12.70;87.34
73297;BME280;61524;50.938;11.396;2022-08-24T05:41:19;100452.66;;;13.00;86.70
73297;BME280;61524;50.938;11.396;2022-08-24T05:43:45;100453.13;;;13.27;86.55
73297;BME280;61524;50.938;11.396;2022-08-24T05:46:12;100430.44;;;13.53;86.55
73297;BME280;61524;50.938;11.396;2022-08-24T05:48:38;100440.97;;;13.78;84.55
73297;BME280;61524;50.938;11.396;2022-08-24T05:51:04;100445.03;;;14.04;83.64
73297;BME280;61524;50.938;11.396;2022-08-24T05:53:30;100435.81;;;14.24;83.89
73297;BME280;61524;50.938;11.396;2022-08-24T05:55:56;100447.94;;;14.50;82.46
73297;BME280;61524;50.938;11.396;2022-08-24T05:58:22;100448.97;;;14.60;82.00
73297;BME280;61524;50.938;11.396;2022-08-24T06:00:47;100444.88;;;14.69;82.08
73297;BME280;61524;50.938;11.396;2022-08-24T06:03:15;100443.81;;;14.70;82.26
73297;BME280;61524;50.938;11.396;2022-08-24T06:05:41;100429.97;;;14.79;82.87
73297;BME280;61524;50.938;11.396;2022-08-24T06:08:07;100427.81;;;14.92;82.11
73297;BME280;61524;50.938;11.396;2022-08-24T06:10:41;100447.59;;;15.15;81.54
73297;BME280;61524;50.938;11.396;2022-08-24T06:13:08;100433.88;;;15.16;81.59
73297;BME280;61524;50.938;11.396;2022-08-24T06:15:36;100424.78;;;15.34;79.95
73297;BME280;61524;50.938;11.396;2022-08-24T06:18:03;100435.94;;;15.60;79.17
73297;BME280;61524;50.938;11.396;2022-08-24T06:20:29;100451.75;;;15.68;79.39
73297;BME280;61524;50.938;11.396;2022-08-24T06:22:55;100441.53;;;15.87;78.78
73297;BME280;61524;50.938;11.396;2022-08-24T06:25:20;100443.16;;;16.05;78.29
73297;BME280;61524;50.938;11.396;2022-08-24T06:28:04;100447.25;;;16.29;77.74
73297;BME280;61524;50.938;11.396;2022-08-24T06:30:29;100447.47;;;16.44;77.61
73297;BME280;61524;50.938;11.396;2022-08-24T06:32:58;100439.00;;;16.58;77.27
73297;BME280;61524;50.938;11.396;2022-08-24T06:35:24;100440.16;;;16.89;76.40
73297;BME280;61524;50.938;11.396;2022-08-24T06:37:49;100449.72;;;17.23;75.33
73297;BME280;61524;50.938;11.396;2022-08-24T06:40:15;100456.84;;;17.67;73.55
73297;BME280;61524;50.938;11.396;2022-08-24T06:42:40;100462.63;;;17.75;72.86
73297;BME280;61524;50.938;11.396;2022-08-24T06:45:06;100474.13;;;18.35;71.56
73297;BME280;61524;50.938;11.396;2022-08-24T06:47:32;100478.97;;;18.85;69.78
73297;BME280;61524;50.938;11.396;2022-08-24T06:49:58;100474.47;;;19.42;67.30
73297;BME280;61524;50.938;11.396;2022-08-24T06:52:24;100476.41;;;19.72;66.37
73297;BME280;61524;50.938;11.396;2022-08-24T06:54:49;100478.00;;;20.14;65.33
73297;BME280;61524;50.938;11.396;2022-08-24T06:57:15;100467.66;;;20.21;64.51
73297;BME280;61524;50.938;11.396;2022-08-24T06:59:40;100467.91;;;20.35;64.92
73297;BME280;61524;50.938;11.396;2022-08-24T07:02:07;100477.78;;;20.85;63.70
73297;BME280;61524;50.938;11.396;2022-08-24T07:04:33;100474.63;;;21.17;62.76
73297;BME280;61524;50.938;11.396;2022-08-24T07:06:58;100462.34;;;21.20;62.22
73297;BME280;61524;50.938;11.396;2022-08-24T07:09:25;100436.22;;;21.24;61.63
73297;BME280;61524;50.938;11.396;2022-08-24T07:11:51;100444.19;;;21.55;61.38
73297;BME280;61524;50.938;11.396;2022-08-24T07:14:17;100443.84;;;21.61;60.66
73297;BME280;61524;50.938;11.396;2022-08-24T07:16:43;100444.94;;;21.89;60.23
73297;BME280;61524;50.938;11.396;2022-08-24T07:19:09;100425.53;;;21.72;61.24
73297;BME280;61524;50.938;11.396;2022-08-24T07:21:35;100441.63;;;21.97;59.74
73297;BME280;61524;50.938;11.396;2022-08-24T07:24:01;100460.06;;;22.53;58.71
73297;BME280;61524;50.938;11.396;2022-08-24T07:26:28;100458.28;;;22.68;58.68
73297;BME280;61524;50.938;11.396;2022-08-24T07:28:58;100443.78;;;22.48;59.48
73297;BME280;61524;50.938;11.396;2022-08-24T07:31:29;100453.56;;;22.73;58.57
73297;BME280;61524;50.938;11.396;2022-08-24T07:33:55;100438.66;;;22.90;58.49
73297;BME280;61524;50.938;11.396;2022-08-24T07:36:20;100435.19;;;23.03;58.64
73297;BME280;61524;50.938;11.396;2022-08-24T07:38:45;100432.19;;;23.04;58.73
73297;BME280;61524;50.938;11.396;2022-08-24T07:41:11;100417.41;;;22.87;59.79
73297;BME280;61524;50.938;11.396;2022-08-24T07:43:39;100443.53;;;23.12;58.22
73297;BME280;61524;50.938;11.396;2022-08-24T07:46:05;100443.63;;;23.39;58.79
73297;BME280;61524;50.938;11.396;2022-08-24T07:48:31;100437.13;;;23.54;57.46
73297;BME280;61524;50.938;11.396;2022-08-24T07:50:56;100452.31;;;23.93;56.89
73297;BME280;61524;50.938;11.396;2022-08-24T07:53:23;100432.22;;;24.02;56.99
73297;BME280;61524;50.938;11.396;2022-08-24T07:55:53;100724.88;;;23.43;58.25
73297;BME280;61524;50.938;11.396;2022-08-24T07:58:20;100367.88;;;23.36;58.63
73297;BME280;61524;50.938;11.396;2022-08-24T08:00:47;100376.47;;;23.43;58.74
73297;BME280;61524;50.938;11.396;2022-08-24T08:03:12;100397.00;;;23.73;58.04
73297;BME280;61524;50.938;11.396;2022-08-24T08:05:38;100387.97;;;23.73;58.13
73297;BME280;61524;50.938;11.396;2022-08-24T08:08:07;100387.16;;;23.72;58.52
73297;BME280;61524;50.938;11.396;2022-08-24T08:10:33;100394.16;;;23.92;58.09
73297;BME280;61524;50.938;11.396;2022-08-24T08:13:03;100397.91;;;24.24;57.59
73297;BME280;61524;50.938;11.396;2022-08-24T08:15:29;100395.59;;;24.31;56.86
73297;BME280;61524;50.938;11.396;2022-08-24T08:17:56;100372.31;;;23.92;58.14
73297;BME280;61524;50.938;11.396;2022-08-24T08:20:21;100385.59;;;24.13;58.15
73297;BME280;61524;50.938;11.396;2022-08-24T08:22:48;100387.59;;;24.34;57.45
73297;BME280;61524;50.938;11.396;2022-08-24T08:25:33;100398.31;;;24.58;56.62
73297;BME280;61524;50.938;11.396;2022-08-24T08:28:01;100386.06;;;24.56;56.12
73297;BME280;61524;50.938;11.396;2022-08-24T08:30:28;100371.28;;;24.57;56.52
73297;BME280;61524;50.938;11.396;2022-08-24T08:32:54;100365.63;;;24.53;57.25
73297;BME280;61524;50.938;11.396;2022-08-24T08:35:19;100369.69;;;24.56;56.35
73297;BME280;61524;50.938;11.396;2022-08-24T08:37:45;100361.72;;;24.18;56.58
73297;BME280;61524;50.938;11.396;2022-08-24T08:40:27;100372.13;;;24.80;55.47
73297;BME280;61524;50.938;11.396;2022-08-24T08:43:00;100366.91;;;24.70;55.80
73297;BME280;61524;50.938;11.396;2022-08-24T08:54:10;100363.47;;;25.00;52.84
73297;BME280;61524;50.938;11.396;2022-08-24T09:15:51;100349.09;;;24.72;52.80
73297;BME280;61524;50.938;11.396;2022-08-24T09:49:34;100395.81;;;25.21;52.34
73297;BME280;61524;50.938;11.396;2022-08-24T09:54:59;100399.41;;;25.75;50.39
73297;BME280;61524;50.938;11.396;2022-08-24T10:00:20;100365.34;;;25.36;51.26
73297;BME280;61524;50.938;11.396;2022-08-24T10:03:13;100347.75;;;25.06;51.51
73297;BME280;61524;50.938;11.396;2022-08-24T10:19:41;100719.47;;;26.26;49.14
73297;BME280;61524;50.938;11.396;2022-08-24T10:27:48;100386.63;;;26.58;47.91
73297;BME280;61524;50.938;11.396;2022-08-24T10:30:20;100376.66;;;26.71;47.03
73297;BME280;61524;50.938;11.396;2022-08-24T10:33:14;100356.19;;;26.60;47.27
73297;BME280;61524;50.938;11.396;2022-08-24T10:41:33;100334.22;;;26.51;46.47
73297;BME280;61524;50.938;11.396;2022-08-24T10:47:25;100340.19;;;26.79;45.65
73297;BME280;61524;50.938;11.396;2022-08-24T10:51:11;100336.66;;;26.70;47.70
73297;BME280;61524;50.938;11.396;2022-08-24T10:53:39;100330.16;;;27.27;44.78
73297;BME280;61524;50.938;11.396;2022-08-24T10:56:08;100321.50;;;26.81;46.39
73297;BME280;61524;50.938;11.396;2022-08-24T11:01:23;102287.16;;;26.58;47.98
73297;BME280;61524;50.938;11.396;2022-08-24T11:03:54;100806.56;;;25.60;48.33
73297;BME280;61524;50.938;11.396;2022-08-24T11:06:22;100656.00;;;25.74;48.08
73297;BME280;61524;50.938;11.396;2022-08-24T11:09:02;100483.28;;;25.48;49.09
73297;BME280;61524;50.938;11.396;2022-08-24T11:11:31;100332.41;;;25.19;50.13
73297;BME280;61524;50.938;11.396;2022-08-24T11:14:08;100314.94;;;25.06;50.30
73297;BME280;61524;50.938;11.396;2022-08-24T11:16:40;100209.97;;;25.24;48.84
73297;BME280;61524;50.938;11.396;2022-08-24T11:21:58;100210.72;;;26.48;46.99
73297;BME280;61524;50.938;11.396;2022-08-24T11:24:47;100212.00;;;26.50;47.26
73297;BME280;61524;50.938;11.396;2022-08-24T11:30:05;100186.28;;;25.68;48.96
73297;BME280;61524;50.938;11.396;2022-08-24T11:32:49;100166.34;;;25.28;50.04
73297;BME280;61524;50.938;11.396;2022-08-24T11:38:24;100185.69;;;25.97;48.86
73297;BME280;61524;50.938;11.396;2022-08-24T11:49:50;100168.28;;;25.93;46.66
73297;BME280;61524;50.938;11.396;2022-08-24T11:52:25;100160.72;;;25.81;46.95
73297;BME280;61524;50.938;11.396;2022-08-24T11:57:35;100167.97;;;26.03;46.66
73297;BME280;61524;50.938;11.396;2022-08-24T12:05:49;100174.75;;;26.23;46.26
73297;BME280;61524;50.938;11.396;2022-08-24T12:08:35;100162.34;;;26.17;46.54
73297;BME280;61524;50.938;11.396;2022-08-24T12:11:31;100165.22;;;26.29;46.40
73297;BME280;61524;50.938;11.396;2022-08-24T12:19:17;100166.38;;;26.54;43.98
73297;BME280;61524;50.938;11.396;2022-08-24T12:21:46;100176.78;;;26.78;44.00
73297;BME280;61524;50.938;11.396;2022-08-24T12:24:21;100152.16;;;26.61;44.46
73297;BME280;61524;50.938;11.396;2022-08-24T12:26:54;100153.41;;;26.63;45.74
73297;BME280;61524;50.938;11.396;2022-08-24T12:30:10;100147.28;;;26.75;44.53
73297;BME280;61524;50.938;11.396;2022-08-24T12:34:49;100149.84;;;26.80;43.75
73297;BME280;61524;50.938;11.396;2022-08-24T12:37:30;100140.16;;;26.74;44.12
73297;BME280;61524;50.938;11.396;2022-08-24T12:42:54;100138.59;;;27.11;44.30
73297;BME280;61524;50.938;11.396;2022-08-24T12:45:23;100134.72;;;27.04;43.72
73297;BME280;61524;50.938;11.396;2022-08-24T12:50:52;100124.03;;;26.73;44.96
73297;BME280;61524;50.938;11.396;2022-08-24T12:58:59;100118.97;;;26.92;43.65
73297;BME280;61524;50.938;11.396;2022-08-24T13:01:29;100119.72;;;27.01;43.59
73297;BME280;61524;50.938;11.396;2022-08-24T13:04:08;100109.31;;;26.86;43.70
73297;BME280;61524;50.938;11.396;2022-08-24T13:11:57;100108.56;;;27.06;42.87
73297;BME280;61524;50.938;11.396;2022-08-24T13:14:28;100113.94;;;27.03;44.54
73297;BME280;61524;50.938;11.396;2022-08-24T13:32:37;100066.00;;;26.62;45.34
73297;BME280;61524;50.938;11.396;2022-08-24T13:41:19;100081.84;;;26.94;43.56
73297;BME280;61524;50.938;11.396;2022-08-24T13:44:21;100080.06;;;26.99;42.04
73297;BME280;61524;50.938;11.396;2022-08-24T13:47:00;100063.53;;;26.78;43.83
73297;BME280;61524;50.938;11.396;2022-08-24T13:50:09;100073.41;;;27.00;42.54
73297;BME280;61524;50.938;11.396;2022-08-24T13:53:05;100067.81;;;26.96;42.68
73297;BME280;61524;50.938;11.396;2022-08-24T13:55:51;100051.72;;;26.86;42.35
73297;BME280;61524;50.938;11.396;2022-08-24T13:58:41;100071.34;;;26.97;42.60
73297;BME280;61524;50.938;11.396;2022-08-24T14:04:00;100130.06;;;27.13;42.77
73297;BME280;61524;50.938;11.396;2022-08-24T14:06:48;100111.38;;;26.98;41.50
73297;BME280;61524;50.938;11.396;2022-08-24T14:14:22;100092.28;;;26.72;43.49
73297;BME280;61524;50.938;11.396;2022-08-24T14:39:38;100061.50;;;26.66;42.02
73297;BME280;61524;50.938;11.396;2022-08-24T14:42:16;100043.69;;;26.42;43.01
73297;BME280;61524;50.938;11.396;2022-08-24T14:50:11;100035.75;;;26.79;44.60
73297;BME280;61524;50.938;11.396;2022-08-24T15:00:25;100021.25;;;26.49;45.51
73297;BME280;61524;50.938;11.396;2022-08-24T15:08:49;100008.97;;;26.55;45.16
73297;BME280;61524;50.938;11.396;2022-08-24T15:11:21;99994.88;;;26.65;44.77
73297;BME280;61524;50.938;11.396;2022-08-24T15:13:54;100011.38;;;26.57;45.16
73297;BME280;61524;50.938;11.396;2022-08-24T15:19:06;99986.94;;;26.34;44.11
73297;BME280;61524;50.938;11.396;2022-08-24T15:21:48;99975.69;;;26.18;44.72
73297;BME280;61524;50.938;11.396;2022-08-24T15:27:27;99977.47;;;26.23;45.56
73297;BME280;61524;50.938;11.396;2022-08-24T15:30:01;99980.81;;;26.37;44.95
73297;BME280;61524;50.938;11.396;2022-08-24T15:32:44;99984.94;;;26.52;45.54
73297;BME280;61524;50.938;11.396;2022-08-24T15:35:27;99981.88;;;26.54;46.77
73297;BME280;61524;50.938;11.396;2022-08-24T15:37:54;99985.00;;;26.43;46.44
73297;BME280;61524;50.938;11.396;2022-08-24T15:40:30;99986.94;;;26.43;46.85
73297;BME280;61524;50.938;11.396;2022-08-24T15:43:00;99970.50;;;26.43;47.42
73297;BME280;61524;50.938;11.396;2022-08-24T15:45:28;99980.81;;;26.29;47.43
73297;BME280;61524;50.938;11.396;2022-08-24T15:47:56;99974.16;;;26.00;47.53
73297;BME280;61524;50.938;11.396;2022-08-24T15:50:24;99967.53;;;26.01;46.90
73297;BME280;61524;50.938;11.396;2022-08-24T15:53:00;99973.81;;;26.10;45.46
73297;BME280;61524;50.938;11.396;2022-08-24T15:55:39;99972.34;;;26.13;45.68
73297;BME280;61524;50.938;11.396;2022-08-24T15:58:26;99968.31;;;26.10;45.98
73297;BME280;61524;50.938;11.396;2022-08-24T16:01:22;99958.31;;;26.14;45.92
73297;BME280;61524;50.938;11.396;2022-08-24T16:04:14;99967.31;;;26.15;46.67
73297;BME280;61524;50.938;11.396;2022-08-24T16:06:58;99961.66;;;26.20;46.66
73297;BME280;61524;50.938;11.396;2022-08-24T16:14:31;99971.34;;;26.26;47.04
73297;BME280;61524;50.938;11.396;2022-08-24T16:16:58;99961.47;;;26.42;47.19
73297;BME280;61524;50.938;11.396;2022-08-24T16:19:33;99964.44;;;26.11;47.77
73297;BME280;61524;50.938;11.396;2022-08-24T16:22:06;99956.69;;;26.13;47.77
73297;BME280;61524;50.938;11.396;2022-08-24T16:24:37;99948.22;;;25.98;48.40
73297;BME280;61524;50.938;11.396;2022-08-24T16:27:11;99945.81;;;25.96;47.92
73297;BME280;61524;50.938;11.396;2022-08-24T16:32:22;99948.88;;;25.95;47.57
73297;BME280;61524;50.938;11.396;2022-08-24T16:35:17;99939.22;;;25.88;47.78
73297;BME280;61524;50.938;11.396;2022-08-24T16:37:43;99938.56;;;25.83;48.07
73297;BME280;61524;50.938;11.396;2022-08-24T16:40:09;99935.22;;;25.69;48.37
73297;BME280;61524;50.938;11.396;2022-08-24T16:42:35;99931.00;;;25.71;48.84
73297;BME280;61524;50.938;11.396;2022-08-24T16:45:04;99934.41;;;25.68;48.44
73297;BME280;61524;50.938;11.396;2022-08-24T16:47:30;99934.75;;;25.58;48.48
73297;BME280;61524;50.938;11.396;2022-08-24T16:49:55;99929.28;;;25.58;48.78
73297;BME280;61524;50.938;11.396;2022-08-24T16:52:21;99934.91;;;25.79;47.77
73297;BME280;61524;50.938;11.396;2022-08-24T16:54:47;99932.47;;;25.77;49.18